Terminal Aerodrome Forecast
Issued by NWS

Home | Current Version | Previous Version | Text Only | Print | Product List | Glossary On
Versions: 1 2 3 4 5 6 7 8 9 10 11 12 13 14 15 16 17 18 19 20 21 22 23 24 25 26 27 28
000
FTUS41 KBOX 011121
TAFBED
TAF
KBED 011121Z 0112/0212 VRB03KT P6SM SCT200
     FM011600 21006KT P6SM BKN050
     FM020600 00000KT P6SM BKN130=

USA.gov is the U.S. government's official web portal to all federal, state and local government web resources and services.